sensor_id;sensor_type;location;lat;lon;timestamp;pressure;altitude;pressure_sealevel;temperature;humidity
58739;BME280;44512;53.046;18.604;2022-08-07T00:07:31;102592.16;;;18.47;40.66
58739;BME280;44512;53.046;18.604;2022-08-07T00:18:00;102600.13;;;18.29;41.10
58739;BME280;44512;53.046;18.604;2022-08-07T00:28:30;102600.04;;;18.09;41.42
58739;BME280;44512;53.046;18.604;2022-08-07T00:38:56;102601.45;;;17.91;41.75
58739;BME280;44512;53.046;18.604;2022-08-07T00:49:25;102600.13;;;17.74;42.14
58739;BME280;44512;53.046;18.604;2022-08-07T00:59:54;102606.73;;;17.58;42.51
58739;BME280;44512;53.046;18.604;2022-08-07T01:10:21;102607.05;;;17.42;42.74
58739;BME280;44512;53.046;18.604;2022-08-07T01:31:19;102588.48;;;17.09;43.39
58739;BME280;44512;53.046;18.604;2022-08-07T01:41:47;102592.15;;;16.95;43.65
58739;BME280;44512;53.046;18.604;2022-08-07T01:52:16;102596.20;;;16.78;43.97
58739;BME280;44512;53.046;18.604;2022-08-07T02:02:57;102598.98;;;16.63;44.25
58739;BME280;44512;53.046;18.604;2022-08-07T02:13:12;102600.07;;;16.47;44.59
58739;BME280;44512;53.046;18.604;2022-08-07T02:23:41;102606.42;;;16.33;44.87
58739;BME280;44512;53.046;18.604;2022-08-07T02:34:09;102592.64;;;16.20;45.19
58739;BME280;44512;53.046;18.604;2022-08-07T02:44:40;102597.92;;;16.06;45.48
58739;BME280;44512;53.046;18.604;2022-08-07T03:05:35;102595.53;;;15.82;46.19
58739;BME280;44512;53.046;18.604;2022-08-07T03:16:03;102595.98;;;15.71;46.62
58739;BME280;44512;53.046;18.604;2022-08-07T03:26:32;102596.42;;;15.59;47.03
58739;BME280;44512;53.046;18.604;2022-08-07T03:37:01;102603.02;;;15.50;47.35
58739;BME280;44512;53.046;18.604;2022-08-07T03:47:30;102600.39;;;15.42;47.84
58739;BME280;44512;53.046;18.604;2022-08-07T03:57:56;102607.24;;;15.38;48.28
58739;BME280;44512;53.046;18.604;2022-08-07T04:08:25;102624.66;;;15.37;49.13
58739;BME280;44512;53.046;18.604;2022-08-07T04:18:52;102627.67;;;15.42;50.23
58739;BME280;44512;53.046;18.604;2022-08-07T04:29:21;102626.17;;;15.54;50.71
58739;BME280;44512;53.046;18.604;2022-08-07T04:39:49;102625.56;;;15.67;51.18
58739;BME280;44512;53.046;18.604;2022-08-07T05:11:23;102642.95;;;16.10;51.68
58739;BME280;44512;53.046;18.604;2022-08-07T05:21:46;102642.86;;;16.19;51.85
58739;BME280;44512;53.046;18.604;2022-08-07T05:32:12;102649.88;;;16.28;51.79
58739;BME280;44512;53.046;18.604;2022-08-07T05:42:39;102651.47;;;16.37;51.62
58739;BME280;44512;53.046;18.604;2022-08-07T05:53:08;102653.06;;;16.46;51.67
58739;BME280;44512;53.046;18.604;2022-08-07T06:03:38;102651.50;;;16.58;51.91
58739;BME280;44512;53.046;18.604;2022-08-07T06:14:05;102640.37;;;16.75;51.72
58739;BME280;44512;53.046;18.604;2022-08-07T06:24:33;102652.73;;;16.92;51.43
58739;BME280;44512;53.046;18.604;2022-08-07T06:35:01;102650.77;;;17.07;51.29
58739;BME280;44512;53.046;18.604;2022-08-07T06:45:30;102657.85;;;17.23;51.48
58739;BME280;44512;53.046;18.604;2022-08-07T06:55:58;102664.93;;;17.39;51.55
58739;BME280;44512;53.046;18.604;2022-08-07T07:06:26;102669.05;;;17.56;51.97
58739;BME280;44512;53.046;18.604;2022-08-07T07:16:58;102667.88;;;17.72;52.16
58739;BME280;44512;53.046;18.604;2022-08-07T07:27:27;102665.73;;;17.89;52.27
58739;BME280;44512;53.046;18.604;2022-08-07T07:37:53;102648.28;;;18.03;52.24
58739;BME280;44512;53.046;18.604;2022-08-07T07:48:21;102662.06;;;18.16;52.15
58739;BME280;44512;53.046;18.604;2022-08-07T07:58:48;102650.74;;;18.33;51.75
58739;BME280;44512;53.046;18.604;2022-08-07T08:09:24;102645.33;;;18.46;50.81
58739;BME280;44512;53.046;18.604;2022-08-07T08:19:46;102641.97;;;18.57;50.62
58739;BME280;44512;53.046;18.604;2022-08-07T08:30:13;102645.41;;;18.72;49.39
58739;BME280;44512;53.046;18.604;2022-08-07T08:40:55;102638.24;;;18.85;48.67
58739;BME280;44512;53.046;18.604;2022-08-07T08:51:17;102636.78;;;18.95;47.91
58739;BME280;44512;53.046;18.604;2022-08-07T09:01:45;102638.91;;;19.13;48.71
58739;BME280;44512;53.046;18.604;2022-08-07T09:33:11;102629.37;;;19.62;45.19
58739;BME280;44512;53.046;18.604;2022-08-07T09:54:01;102595.05;;;19.85;42.71
58739;BME280;44512;53.046;18.604;2022-08-07T10:25:35;102561.54;;;20.14;42.06
58739;BME280;44512;53.046;18.604;2022-08-07T10:51:52;102556.51;;;20.43;41.50
58739;BME280;44512;53.046;18.604;2022-08-07T11:12:45;102532.92;;;20.60;39.89
58739;BME280;44512;53.046;18.604;2022-08-07T12:05:10;102501.99;;;21.08;38.25
58739;BME280;44512;53.046;18.604;2022-08-07T12:15:30;102495.61;;;21.14;37.36
58739;BME280;44512;53.046;18.604;2022-08-07T12:36:23;102490.77;;;21.28;37.16
58739;BME280;44512;53.046;18.604;2022-08-07T12:57:24;102468.53;;;21.48;36.74
58739;BME280;44512;53.046;18.604;2022-08-07T13:08:00;102451.60;;;21.63;37.08
58739;BME280;44512;53.046;18.604;2022-08-07T13:28:56;102446.70;;;21.95;37.17
58739;BME280;44512;53.046;18.604;2022-08-07T13:49:45;102432.07;;;22.24;36.43
58739;BME280;44512;53.046;18.604;2022-08-07T14:00:10;102423.66;;;22.31;36.06
58739;BME280;44512;53.046;18.604;2022-08-07T14:10:40;102416.36;;;22.36;35.78
58739;BME280;44512;53.046;18.604;2022-08-07T14:21:10;102405.20;;;22.43;35.76
58739;BME280;44512;53.046;18.604;2022-08-07T14:31:35;102405.10;;;22.50;35.47
58739;BME280;44512;53.046;18.604;2022-08-07T14:42:03;102396.94;;;22.55;35.30
58739;BME280;44512;53.046;18.604;2022-08-07T14:52:32;102400.66;;;22.60;35.20
58739;BME280;44512;53.046;18.604;2022-08-07T15:03:03;102387.35;;;22.69;34.85
58739;BME280;44512;53.046;18.604;2022-08-07T15:13:28;102388.63;;;22.78;34.83
58739;BME280;44512;53.046;18.604;2022-08-07T15:23:58;102384.89;;;22.84;34.74
58739;BME280;44512;53.046;18.604;2022-08-07T15:34:24;102373.63;;;22.98;34.66
58739;BME280;44512;53.046;18.604;2022-08-07T15:44:53;102364.54;;;23.26;33.62
58739;BME280;44512;53.046;18.604;2022-08-07T15:55:22;102363.20;;;23.69;32.75
58739;BME280;44512;53.046;18.604;2022-08-07T16:05:50;102343.45;;;24.10;32.37
58739;BME280;44512;53.046;18.604;2022-08-07T17:40:13;102335.42;;;25.57;29.55
58739;BME280;44512;53.046;18.604;2022-08-07T18:01:09;102344.12;;;24.95;30.27
58739;BME280;44512;53.046;18.604;2022-08-07T18:11:33;102342.19;;;24.74;30.71
58739;BME280;44512;53.046;18.604;2022-08-07T18:22:01;102361.54;;;24.52;31.15
58739;BME280;44512;53.046;18.604;2022-08-07T18:43:08;102373.52;;;24.07;32.23
58739;BME280;44512;53.046;18.604;2022-08-07T19:03:57;102384.15;;;23.53;33.69
58739;BME280;44512;53.046;18.604;2022-08-07T19:24:47;102386.02;;;22.95;34.68
58739;BME280;44512;53.046;18.604;2022-08-07T19:35:22;102391.99;;;22.69;35.20
58739;BME280;44512;53.046;18.604;2022-08-07T19:45:45;102395.61;;;22.46;35.99
58739;BME280;44512;53.046;18.604;2022-08-07T19:56:12;102393.69;;;22.23;36.41
58739;BME280;44512;53.046;18.604;2022-08-07T20:06:41;102407.14;;;22.01;36.82
58739;BME280;44512;53.046;18.604;2022-08-07T20:17:09;102410.45;;;21.79;37.21
58739;BME280;44512;53.046;18.604;2022-08-07T20:27:38;102423.22;;;21.62;37.91
58739;BME280;44512;53.046;18.604;2022-08-07T20:38:06;102426.13;;;21.49;38.00
58739;BME280;44512;53.046;18.604;2022-08-07T20:48:35;102435.28;;;21.31;38.10
58739;BME280;44512;53.046;18.604;2022-08-07T20:59:03;102447.33;;;21.12;38.44
58739;BME280;44512;53.046;18.604;2022-08-07T21:09:34;102441.59;;;20.95;38.90
58739;BME280;44512;53.046;18.604;2022-08-07T21:20:02;102442.19;;;20.78;39.51
58739;BME280;44512;53.046;18.604;2022-08-07T21:41:06;102456.32;;;20.57;40.75
58739;BME280;44512;53.046;18.604;2022-08-07T21:51:33;102445.02;;;20.47;41.54
58739;BME280;44512;53.046;18.604;2022-08-07T22:02:00;102453.50;;;20.39;42.42
58739;BME280;44512;53.046;18.604;2022-08-07T22:12:27;102451.02;;;20.30;43.06
58739;BME280;44512;53.046;18.604;2022-08-07T22:22:55;102450.67;;;20.20;43.74
58739;BME280;44512;53.046;18.604;2022-08-07T22:33:23;102453.71;;;20.12;44.16
58739;BME280;44512;53.046;18.604;2022-08-07T22:43:48;102461.38;;;20.03;44.71
58739;BME280;44512;53.046;18.604;2022-08-07T23:15:19;102466.23;;;19.70;46.41
58739;BME280;44512;53.046;18.604;2022-08-07T23:36:15;102469.71;;;19.39;46.87
